createdAt,value
2024-02-13T00:00:34.187Z,8.30
2024-02-13T00:03:01.374Z,8.30
2024-02-13T00:05:28.524Z,8.30
2024-02-13T00:07:55.838Z,8.50
2024-02-13T00:10:22.778Z,8.60
2024-02-13T00:12:49.788Z,8.60
2024-02-13T00:15:21.251Z,8.60
2024-02-13T00:17:52.506Z,8.70
2024-02-13T00:20:19.799Z,8.80
2024-02-13T00:22:47.568Z,8.90
2024-02-13T00:25:14.689Z,8.80
2024-02-13T00:27:41.775Z,8.60
2024-02-13T00:30:10.536Z,8.40
2024-02-13T00:32:40.832Z,8.40
2024-02-13T00:35:09.966Z,8.40
2024-02-13T00:37:40.640Z,8.60
2024-02-13T00:40:11.203Z,8.80
2024-02-13T00:42:39.028Z,8.70
2024-02-13T00:45:08.683Z,8.50
2024-02-13T00:47:36.116Z,8.40
2024-02-13T00:50:04.062Z,8.30
2024-02-13T00:52:31.091Z,8.30
2024-02-13T00:54:59.297Z,8.20
2024-02-13T00:57:26.598Z,8.10
2024-02-13T00:59:54.218Z,8.10
2024-02-13T01:02:21.410Z,8.00
2024-02-13T01:04:49.311Z,8.00
2024-02-13T01:07:18.921Z,8.00
2024-02-13T01:09:46.184Z,7.90
2024-02-13T01:12:13.184Z,7.90
2024-02-13T01:14:40.309Z,7.90
2024-02-13T01:17:07.493Z,7.90
2024-02-13T01:19:34.665Z,7.90
2024-02-13T01:22:02.270Z,7.90
2024-02-13T01:24:30.549Z,7.90
2024-02-13T01:26:59.348Z,7.90
2024-02-13T01:29:26.544Z,7.90
2024-02-13T01:31:54.922Z,8.00
2024-02-13T01:34:22.050Z,8.00
2024-02-13T01:36:49.551Z,7.90
2024-02-13T01:39:16.503Z,7.90
2024-02-13T01:41:43.956Z,7.80
2024-02-13T01:44:10.983Z,7.70
2024-02-13T01:46:39.769Z,7.80
2024-02-13T01:49:08.975Z,7.90
2024-02-13T01:51:38.510Z,8.00
2024-02-13T01:54:11.401Z,8.10
2024-02-13T01:59:08.350Z,8.30
2024-02-13T02:01:37.195Z,8.30
2024-02-13T02:04:07.230Z,8.20
2024-02-13T02:06:36.125Z,8.20
2024-02-13T02:09:07.081Z,8.10
2024-02-13T02:11:35.232Z,8.00
2024-02-13T02:14:02.613Z,7.90
2024-02-13T02:16:29.804Z,7.80
2024-02-13T02:18:57.121Z,7.70
2024-02-13T02:21:24.261Z,7.70
2024-02-13T02:23:51.444Z,7.70
2024-02-13T02:26:18.448Z,7.70
2024-02-13T02:28:47.125Z,7.70
2024-02-13T02:31:17.004Z,7.90
2024-02-13T02:33:46.425Z,8.00
2024-02-13T02:36:13.379Z,8.00
2024-02-13T02:38:40.400Z,8.00
2024-02-13T02:41:10.420Z,8.00
2024-02-13T02:43:42.541Z,8.00
2024-02-13T02:46:10.895Z,7.90
2024-02-13T02:48:39.001Z,7.80
2024-02-13T02:51:06.749Z,7.80
2024-02-13T02:53:33.946Z,7.80
2024-02-13T02:56:01.085Z,7.80
2024-02-13T02:58:28.204Z,7.70
2024-02-13T03:00:55.206Z,7.70
2024-02-13T03:03:23.117Z,7.70
2024-02-13T03:05:52.961Z,7.70
2024-02-13T03:08:20.641Z,7.90
2024-02-13T03:10:47.657Z,7.90
2024-02-13T03:13:15.441Z,7.90
2024-02-13T03:15:42.501Z,7.80
2024-02-13T03:18:11.059Z,7.80
2024-02-13T03:20:38.396Z,7.60
2024-02-13T03:23:05.455Z,7.60
2024-02-13T03:25:32.459Z,7.60
2024-02-13T03:27:59.448Z,7.50
2024-02-13T03:30:26.388Z,7.50
2024-02-13T03:32:53.717Z,7.50
2024-02-13T03:35:20.826Z,7.40
2024-02-13T03:37:47.786Z,7.40
2024-02-13T03:40:17.567Z,7.30
2024-02-13T03:42:47.558Z,7.30
2024-02-13T03:45:14.639Z,7.20
2024-02-13T03:47:41.696Z,7.20
2024-02-13T03:50:09.021Z,7.30
2024-02-13T03:52:37.222Z,7.20
2024-02-13T03:55:05.954Z,7.20
2024-02-13T03:57:33.232Z,7.10
2024-02-13T04:00:01.733Z,7.10
2024-02-13T04:02:29.462Z,7.10
2024-02-13T04:04:56.493Z,7.10
2024-02-13T04:07:24.330Z,7.20
2024-02-13T04:09:51.440Z,7.20
2024-02-13T04:12:18.369Z,7.10
2024-02-13T04:14:45.472Z,7.10
2024-02-13T04:17:12.483Z,7.00
2024-02-13T04:19:42.374Z,7.00
2024-02-13T04:22:09.728Z,7.00
2024-02-13T04:24:36.778Z,6.90
2024-02-13T04:27:04.427Z,6.90
2024-02-13T04:29:31.916Z,7.00
2024-02-13T04:32:00.442Z,7.10
2024-02-13T04:34:30.769Z,7.10
2024-02-13T04:36:59.048Z,7.20
2024-02-13T04:39:26.064Z,7.20
2024-02-13T04:41:53.114Z,7.30
2024-02-13T04:44:21.503Z,7.30
2024-02-13T04:46:48.576Z,7.30
2024-02-13T04:49:15.802Z,7.40
2024-02-13T04:51:44.587Z,7.40
2024-02-13T04:54:11.575Z,7.40
2024-02-13T04:56:38.598Z,7.30
2024-02-13T04:59:08.845Z,7.20
2024-02-13T05:01:40.772Z,7.10
2024-02-13T05:04:16.974Z,7.00
2024-02-13T05:07:02.799Z,7.00
2024-02-13T05:09:29.808Z,7.00
2024-02-13T05:11:56.818Z,6.90
2024-02-13T05:14:23.973Z,7.00
2024-02-13T05:16:51.042Z,7.00
2024-02-13T05:19:18.040Z,7.00
2024-02-13T05:21:45.003Z,6.90
2024-02-13T05:24:12.002Z,6.90
2024-02-13T05:26:39.150Z,6.80
2024-02-13T05:29:06.365Z,6.70
2024-02-13T05:31:34.778Z,6.60
2024-02-13T05:34:01.912Z,6.50
2024-02-13T05:36:29.071Z,6.60
2024-02-13T05:38:56.884Z,6.60
2024-02-13T05:41:23.986Z,6.60
2024-02-13T05:43:52.937Z,6.50
2024-02-13T05:46:19.988Z,6.50
2024-02-13T05:48:47.001Z,6.50
2024-02-13T05:51:16.073Z,6.40
2024-02-13T05:53:43.997Z,6.50
2024-02-13T05:56:14.207Z,6.50
2024-02-13T05:58:43.345Z,6.50
2024-02-13T06:01:14.276Z,6.60
2024-02-13T06:03:41.718Z,6.60
2024-02-13T06:06:09.223Z,6.50
2024-02-13T06:08:36.550Z,6.50
2024-02-13T06:11:06.107Z,6.50
2024-02-13T06:13:35.106Z,6.60
2024-02-13T06:16:02.193Z,6.60
2024-02-13T06:18:29.510Z,6.60
2024-02-13T06:20:56.728Z,6.70
2024-02-13T06:23:23.857Z,6.80
2024-02-13T06:25:50.800Z,6.80
2024-02-13T06:28:17.965Z,6.60
2024-02-13T06:30:46.333Z,6.50
2024-02-13T06:33:13.818Z,6.40
2024-02-13T06:35:41.191Z,6.30
2024-02-13T06:38:08.266Z,6.20
2024-02-13T06:40:35.561Z,6.20
2024-02-13T06:43:04.852Z,6.10
2024-02-13T06:45:32.213Z,6.10
2024-02-13T06:47:59.545Z,6.20
2024-02-13T06:50:26.615Z,6.20
2024-02-13T06:52:55.384Z,6.20
2024-02-13T06:55:22.992Z,6.20
2024-02-13T06:57:50.032Z,6.10
2024-02-13T07:00:17.845Z,6.10
2024-02-13T07:02:45.293Z,6.20
2024-02-13T07:05:13.820Z,6.20
2024-02-13T07:07:47.225Z,6.30
2024-02-13T07:10:17.592Z,6.30
2024-02-13T07:12:45.658Z,6.50
2024-02-13T07:15:13.471Z,6.60
2024-02-13T07:17:49.196Z,6.70
2024-02-13T07:20:24.948Z,6.70
2024-02-13T07:22:52.439Z,6.70
2024-02-13T07:25:19.734Z,6.80
2024-02-13T07:27:50.456Z,7.00
2024-02-13T07:30:18.023Z,7.20
2024-02-13T07:32:47.443Z,7.50
2024-02-13T07:35:16.075Z,7.70
2024-02-13T07:37:43.333Z,7.90
2024-02-13T07:40:11.317Z,8.00
2024-02-13T07:42:38.294Z,8.20
2024-02-13T07:45:06.405Z,8.20
2024-02-13T07:47:35.103Z,8.20
2024-02-13T07:50:02.253Z,8.20
2024-02-13T07:52:29.285Z,8.30
2024-02-13T07:54:56.473Z,8.30
2024-02-13T07:57:23.451Z,8.40
2024-02-13T07:59:57.202Z,8.60
2024-02-13T08:02:25.052Z,8.60
2024-02-13T08:04:53.033Z,8.80
2024-02-13T08:07:20.308Z,8.90
2024-02-13T08:09:47.551Z,9.10
2024-02-13T08:12:14.559Z,9.20
2024-02-13T08:14:41.658Z,9.30
2024-02-13T08:17:10.014Z,9.40
2024-02-13T08:19:39.395Z,9.50
2024-02-13T08:22:06.456Z,9.60
2024-02-13T08:24:34.420Z,9.80
2024-02-13T08:27:01.272Z,10.00
2024-02-13T08:29:30.571Z,10.10
2024-02-13T08:31:58.342Z,10.20
2024-02-13T08:34:25.841Z,10.30
2024-02-13T08:36:54.563Z,10.40
2024-02-13T08:39:21.944Z,10.50
2024-02-13T08:41:49.103Z,10.60
2024-02-13T08:44:17.921Z,10.70
2024-02-13T08:46:45.270Z,10.70
2024-02-13T08:49:13.704Z,10.80
2024-02-13T08:51:41.415Z,11.00
2024-02-13T08:54:12.513Z,11.10
2024-02-13T08:56:40.839Z,11.20
2024-02-13T08:59:09.314Z,11.20
2024-02-13T09:01:36.491Z,11.20
2024-02-13T09:04:03.806Z,11.30
2024-02-13T09:06:33.517Z,11.40
2024-02-13T09:09:03.165Z,11.40
2024-02-13T09:11:32.535Z,11.50
2024-02-13T09:13:59.797Z,11.50
2024-02-13T09:16:27.140Z,11.60
2024-02-13T09:18:57.196Z,11.60
2024-02-13T09:21:25.084Z,11.60
2024-02-13T09:23:52.499Z,11.70
2024-02-13T09:26:19.876Z,11.80
2024-02-13T09:28:46.873Z,11.70
2024-02-13T09:31:13.949Z,11.80
2024-02-13T09:33:41.720Z,11.80
2024-02-13T09:36:09.822Z,11.80
2024-02-13T09:38:41.933Z,11.80
2024-02-13T09:41:11.250Z,11.90
2024-02-13T09:43:44.178Z,11.90
2024-02-13T09:46:16.126Z,11.90
2024-02-13T09:48:48.501Z,11.90
2024-02-13T09:51:18.906Z,12.00
2024-02-13T09:53:48.492Z,12.00
2024-02-13T09:56:16.366Z,12.10
2024-02-13T09:58:45.311Z,12.10
2024-02-13T10:01:12.304Z,12.10
2024-02-13T10:03:43.149Z,12.20
2024-02-13T10:06:12.004Z,12.20
2024-02-13T10:08:41.228Z,12.30
2024-02-13T10:11:10.366Z,12.20
2024-02-13T10:13:47.064Z,12.30
2024-02-13T10:16:25.199Z,12.30
2024-02-13T10:18:58.847Z,12.40
2024-02-13T10:21:27.850Z,12.40
2024-02-13T10:24:15.426Z,12.40
2024-02-13T10:26:43.078Z,12.50
2024-02-13T10:29:10.358Z,12.50
2024-02-13T10:31:39.581Z,12.50
2024-02-13T10:34:09.496Z,12.60
2024-02-13T10:36:38.107Z,12.60
2024-02-13T10:39:10.144Z,12.70
2024-02-13T10:41:43.315Z,12.70
2024-02-13T10:44:11.779Z,12.70
2024-02-13T10:46:41.790Z,12.70
2024-02-13T10:49:27.204Z,12.70
2024-02-13T10:51:55.008Z,12.70
2024-02-13T10:54:25.536Z,12.70
2024-02-13T10:56:54.025Z,12.80
2024-02-13T10:59:23.925Z,12.80
2024-02-13T11:01:55.470Z,12.80
2024-02-13T11:04:22.886Z,12.80
2024-02-13T11:06:50.864Z,12.80
2024-02-13T11:09:19.302Z,12.90
2024-02-13T11:11:46.800Z,12.90
2024-02-13T11:14:19.057Z,13.00
2024-02-13T11:17:02.208Z,13.00
2024-02-13T11:19:45.802Z,13.10
2024-02-13T11:22:16.415Z,13.10
2024-02-13T11:24:50.587Z,13.20
2024-02-13T11:27:27.204Z,13.20
2024-02-13T11:30:01.498Z,13.30
2024-02-13T11:32:41.159Z,13.30
2024-02-13T11:35:12.264Z,13.40
2024-02-13T11:37:43.419Z,13.40
2024-02-13T11:40:14.697Z,13.40
2024-02-13T11:42:43.055Z,13.40
2024-02-13T11:45:23.596Z,13.40
2024-02-13T11:47:50.789Z,13.50
2024-02-13T11:50:20.968Z,13.50
2024-02-13T11:52:49.323Z,13.60
2024-02-13T11:55:16.433Z,13.60
2024-02-13T11:57:46.629Z,13.60
2024-02-13T12:00:20.004Z,13.70
2024-02-13T12:02:50.937Z,13.70
2024-02-13T12:05:20.633Z,13.80
2024-02-13T12:07:48.265Z,13.80
2024-02-13T12:10:16.363Z,13.80
2024-02-13T12:12:43.864Z,13.80
2024-02-13T12:15:13.720Z,13.80
2024-02-13T12:17:41.260Z,13.80
2024-02-13T12:20:13.645Z,13.90
2024-02-13T12:22:45.811Z,13.90
2024-02-13T12:25:17.754Z,13.90
2024-02-13T12:27:44.843Z,13.90
2024-02-13T12:30:12.677Z,13.80
2024-02-13T12:32:39.980Z,13.90
2024-02-13T12:35:23.005Z,13.80
2024-02-13T12:37:53.233Z,13.90
2024-02-13T12:40:21.494Z,13.90
2024-02-13T12:42:48.548Z,13.80
2024-02-13T12:45:19.253Z,13.80
2024-02-13T12:47:46.923Z,13.90
2024-02-13T12:50:17.491Z,13.90
2024-02-13T12:52:44.743Z,13.90
2024-02-13T12:55:14.546Z,14.00
2024-02-13T12:57:42.029Z,14.00
2024-02-13T13:00:16.001Z,14.10
2024-02-13T13:02:44.903Z,14.10
2024-02-13T13:05:15.792Z,14.10
2024-02-13T13:07:47.367Z,14.10
2024-02-13T13:10:21.001Z,14.10
2024-02-13T13:12:48.517Z,14.00
2024-02-13T13:15:19.927Z,14.10
2024-02-13T13:17:52.766Z,14.00
2024-02-13T13:20:20.209Z,14.00
2024-02-13T13:22:48.977Z,14.00
2024-02-13T13:25:25.317Z,14.00
2024-02-13T13:27:53.512Z,14.10
2024-02-13T13:30:21.537Z,14.10
2024-02-13T13:32:50.144Z,14.10
2024-02-13T13:35:21.457Z,14.10
2024-02-13T13:37:51.381Z,14.10
2024-02-13T13:40:18.314Z,14.20
2024-02-13T13:42:45.798Z,14.20
2024-02-13T13:45:16.973Z,14.20
2024-02-13T13:47:45.309Z,14.20
2024-02-13T13:50:18.962Z,14.20
2024-02-13T13:52:46.520Z,14.30
2024-02-13T13:55:14.180Z,14.30
2024-02-13T13:57:41.184Z,14.20
2024-02-13T14:00:14.575Z,14.30
2024-02-13T14:02:41.596Z,14.20
2024-02-13T14:05:08.591Z,14.30
2024-02-13T14:07:36.661Z,14.20
2024-02-13T14:10:04.099Z,14.20
2024-02-13T14:12:31.128Z,14.20
2024-02-13T14:14:58.681Z,14.20
2024-02-13T14:17:26.239Z,14.20
2024-02-13T14:19:54.894Z,14.20
2024-02-13T14:22:22.038Z,14.20
2024-02-13T14:24:49.018Z,14.20
2024-02-13T14:27:16.304Z,14.20
2024-02-13T14:29:44.089Z,14.20
2024-02-13T14:32:11.846Z,14.20
2024-02-13T14:34:38.952Z,14.20
2024-02-13T14:37:07.510Z,14.20
2024-02-13T14:39:34.954Z,14.20
2024-02-13T14:42:04.561Z,14.20
2024-02-13T14:44:31.745Z,14.20
2024-02-13T14:46:58.914Z,14.10
2024-02-13T14:51:55.095Z,14.10
2024-02-13T14:54:22.650Z,14.10
2024-02-13T14:56:50.976Z,14.10
2024-02-13T14:59:18.431Z,14.10
2024-02-13T15:01:46.353Z,14.10
2024-02-13T15:04:14.214Z,14.10
2024-02-13T15:06:41.400Z,14.10
2024-02-13T15:09:11.593Z,14.00
2024-02-13T15:11:39.208Z,14.00
2024-02-13T15:14:08.141Z,14.00
2024-02-13T15:16:35.316Z,14.00
2024-02-13T15:19:04.186Z,14.00
2024-02-13T15:21:31.262Z,14.00
2024-02-13T15:23:58.626Z,14.00
2024-02-13T15:26:26.415Z,14.00
2024-02-13T15:28:54.130Z,13.90
2024-02-13T15:31:22.143Z,13.90
2024-02-13T15:33:50.437Z,13.90
2024-02-13T15:36:32.996Z,13.90
2024-02-13T15:39:22.345Z,13.80
2024-02-13T15:42:07.774Z,13.80
2024-02-13T15:44:53.339Z,13.70
2024-02-13T15:47:22.022Z,13.70
2024-02-13T15:49:51.281Z,13.70
2024-02-13T15:52:18.773Z,13.60
2024-02-13T15:54:48.778Z,13.60
2024-02-13T15:57:16.086Z,13.50
2024-02-13T15:59:44.429Z,13.50
2024-02-13T16:02:11.969Z,13.50
2024-02-13T16:04:40.356Z,13.40
2024-02-13T16:07:11.546Z,13.40
2024-02-13T16:09:38.535Z,13.30
2024-02-13T16:12:06.123Z,13.30
2024-02-13T16:14:33.386Z,13.30
2024-02-13T16:17:00.898Z,13.20
2024-02-13T16:19:31.237Z,13.20
2024-02-13T16:21:58.875Z,13.20
2024-02-13T16:24:25.810Z,13.20
2024-02-13T16:26:54.638Z,13.10
2024-02-13T16:29:24.931Z,13.10
2024-02-13T16:31:54.644Z,13.00
2024-02-13T16:34:22.873Z,12.90
2024-02-13T16:36:49.985Z,12.90
2024-02-13T16:39:18.960Z,12.80
2024-02-13T16:41:50.338Z,12.80
2024-02-13T16:44:20.106Z,12.80
2024-02-13T16:46:49.613Z,12.70
2024-02-13T16:49:16.975Z,12.60
2024-02-13T16:51:44.112Z,12.60
2024-02-13T16:54:11.968Z,12.50
2024-02-13T16:56:39.171Z,12.50
2024-02-13T16:59:06.269Z,12.50
2024-02-13T17:01:33.440Z,12.50
2024-02-13T17:04:02.120Z,12.40
2024-02-13T17:06:32.292Z,12.30
2024-02-13T17:09:01.923Z,12.30
2024-02-13T17:11:29.238Z,12.30
2024-02-13T17:13:56.535Z,12.30
2024-02-13T17:16:23.516Z,12.20
2024-02-13T17:18:50.620Z,12.10
2024-02-13T17:21:17.995Z,12.00
2024-02-13T17:23:45.114Z,11.90
2024-02-13T17:26:17.702Z,11.70
2024-02-13T17:28:44.587Z,11.70
2024-02-13T17:31:11.458Z,11.70
2024-02-13T17:33:38.778Z,11.60
2024-02-13T17:36:06.296Z,11.60
2024-02-13T17:38:34.605Z,11.50
2024-02-13T17:41:02.950Z,11.50
2024-02-13T17:43:31.369Z,11.50
2024-02-13T17:45:58.314Z,11.50
2024-02-13T17:48:25.340Z,11.50
2024-02-13T17:50:52.346Z,11.50
2024-02-13T17:53:19.316Z,11.50
2024-02-13T17:55:46.201Z,11.50
2024-02-13T17:58:14.725Z,11.50
2024-02-13T18:00:45.102Z,11.40
2024-02-13T18:03:12.587Z,11.20
2024-02-13T18:05:40.129Z,11.10
2024-02-13T18:08:07.483Z,11.00
2024-02-13T18:10:34.672Z,10.90
2024-02-13T18:13:03.036Z,10.90
2024-02-13T18:15:30.089Z,10.90
2024-02-13T18:17:58.635Z,10.80
2024-02-13T18:20:28.106Z,10.80
2024-02-13T18:22:55.535Z,10.80
2024-02-13T18:25:23.036Z,10.70
2024-02-13T18:27:50.067Z,10.60
2024-02-13T18:30:17.629Z,10.60
2024-02-13T18:32:44.686Z,10.60
2024-02-13T18:35:12.138Z,10.60
2024-02-13T18:37:44.313Z,10.60
2024-02-13T18:40:13.622Z,10.60
2024-02-13T18:42:42.522Z,10.50
2024-02-13T18:45:15.354Z,10.40
2024-02-13T18:47:47.557Z,10.30
2024-02-13T18:50:15.127Z,10.20
2024-02-13T18:52:43.116Z,10.10
2024-02-13T18:55:12.106Z,10.00
2024-02-13T18:57:39.084Z,9.80
2024-02-13T19:00:08.288Z,9.60
2024-02-13T19:02:36.490Z,9.80
2024-02-13T19:05:04.619Z,10.00
2024-02-13T19:07:34.521Z,10.10
2024-02-13T19:10:05.971Z,10.10
2024-02-13T19:12:34.045Z,10.10
2024-02-13T19:15:02.728Z,10.10
2024-02-13T19:17:30.820Z,10.00
2024-02-13T19:19:57.828Z,10.00
2024-02-13T19:22:27.141Z,10.00
2024-02-13T19:24:56.233Z,9.90
2024-02-13T19:27:25.021Z,10.00
2024-02-13T19:29:53.928Z,10.10
2024-02-13T19:32:21.091Z,10.10
2024-02-13T19:34:53.085Z,10.00
2024-02-13T19:37:22.433Z,10.10
2024-02-13T19:39:51.231Z,10.00
2024-02-13T19:42:18.404Z,10.00
2024-02-13T19:44:48.840Z,10.00
2024-02-13T19:47:17.787Z,9.90
2024-02-13T19:49:44.787Z,9.80
2024-02-13T19:52:13.670Z,9.60
2024-02-13T19:54:40.719Z,9.60
2024-02-13T19:57:07.656Z,9.50
2024-02-13T19:59:35.290Z,9.30
2024-02-13T20:02:02.643Z,9.10
2024-02-13T20:04:30.767Z,9.00
2024-02-13T20:07:01.065Z,8.90
2024-02-13T20:09:28.860Z,8.70
2024-02-13T20:11:55.836Z,8.60
2024-02-13T20:14:22.811Z,8.50
2024-02-13T20:16:50.538Z,8.50
2024-02-13T20:19:17.805Z,8.60
2024-02-13T20:24:44.715Z,8.90
2024-02-13T20:27:11.687Z,9.00
2024-02-13T20:29:38.740Z,9.10
2024-02-13T20:32:05.887Z,9.10
2024-02-13T20:34:32.965Z,9.10
2024-02-13T20:37:04.574Z,9.20
2024-02-13T20:39:31.839Z,9.20
2024-02-13T20:42:00.109Z,9.20
2024-02-13T20:44:28.896Z,9.10
2024-02-13T20:46:57.864Z,9.10
2024-02-13T20:49:25.822Z,9.10
2024-02-13T20:51:52.922Z,9.00
2024-02-13T20:54:20.177Z,9.00
2024-02-13T20:56:48.353Z,8.90
2024-02-13T20:59:15.847Z,8.90
2024-02-13T21:01:43.618Z,8.90
2024-02-13T21:04:11.243Z,9.00
2024-02-13T21:06:42.335Z,9.00
2024-02-13T21:09:11.463Z,8.90
2024-02-13T21:11:38.517Z,8.90
2024-02-13T21:14:05.607Z,8.90
2024-02-13T21:16:34.497Z,9.00
2024-02-13T21:19:02.643Z,9.00
2024-02-13T21:21:48.409Z,9.00
2024-02-13T21:24:15.470Z,9.10
2024-02-13T21:26:42.627Z,9.10
2024-02-13T21:29:10.242Z,9.10
2024-02-13T21:31:37.932Z,9.10
2024-02-13T21:34:07.974Z,9.10
2024-02-13T21:36:36.198Z,9.10
2024-02-13T21:39:09.145Z,9.10
2024-02-13T21:41:37.041Z,9.10
2024-02-13T21:44:04.938Z,9.10
2024-02-13T21:46:32.672Z,9.10
2024-02-13T21:49:00.200Z,9.10
2024-02-13T21:51:27.342Z,9.10
2024-02-13T21:53:54.296Z,9.00
2024-02-13T21:56:23.256Z,9.00
2024-02-13T21:58:51.432Z,9.00
2024-02-13T22:01:18.442Z,9.00
2024-02-13T22:03:45.452Z,8.90
2024-02-13T22:06:14.853Z,8.90
2024-02-13T22:08:43.936Z,8.90
2024-02-13T22:11:11.075Z,8.90
2024-02-13T22:13:38.049Z,8.90
2024-02-13T22:16:05.498Z,8.90
2024-02-13T22:18:32.793Z,8.90
2024-02-13T22:20:59.917Z,9.00
2024-02-13T22:23:27.151Z,9.00
2024-02-13T22:25:57.993Z,9.00
2024-02-13T22:28:24.979Z,9.00
2024-02-13T22:30:51.848Z,8.90
2024-02-13T22:33:18.955Z,8.90
2024-02-13T22:35:45.969Z,8.80
2024-02-13T22:38:12.945Z,8.80
2024-02-13T22:40:39.886Z,8.80
2024-02-13T22:43:06.841Z,8.80
2024-02-13T22:45:34.091Z,8.80
2024-02-13T22:48:03.036Z,8.70
2024-02-13T22:50:30.717Z,8.50
2024-02-13T22:52:59.963Z,8.50
2024-02-13T22:55:30.195Z,8.40
2024-02-13T22:57:58.600Z,8.40
2024-02-13T23:00:44.477Z,8.30
2024-02-13T23:03:14.082Z,8.30
2024-02-13T23:05:48.364Z,8.30
2024-02-13T23:08:16.920Z,8.30
2024-02-13T23:10:44.103Z,8.30
2024-02-13T23:13:12.257Z,8.30
2024-02-13T23:15:39.382Z,8.20
2024-02-13T23:18:06.554Z,8.20
2024-02-13T23:20:33.521Z,8.20
2024-02-13T23:23:00.866Z,8.20
2024-02-13T23:25:27.863Z,8.10
2024-02-13T23:27:55.440Z,8.00
2024-02-13T23:30:23.043Z,8.00
2024-02-13T23:32:50.595Z,8.10
2024-02-13T23:35:18.632Z,8.10
2024-02-13T23:37:47.198Z,8.10
2024-02-13T23:40:19.517Z,8.10
2024-02-13T23:42:50.460Z,8.20
2024-02-13T23:45:17.980Z,8.10
2024-02-13T23:47:45.512Z,8.00
2024-02-13T23:50:12.898Z,7.90
2024-02-13T23:52:39.863Z,7.80
2024-02-13T23:55:07.459Z,7.80
2024-02-13T23:57:34.483Z,7.80
